This is the latest recevied weather packets stored in our database for station/object LB9CG. If no packets are shown the sender has not sent any weather packets the latest 10 day(s).
| Time | Temp. | Humidity | Pressure | Rain* | Wind** | Luminosity | Snow |
|---|---|---|---|---|---|---|---|
| 1778013016 | 2.22° C | 91% | 1004.8 hPa | 0 mm | - | - | - |
| 1778010016 | 2.22° C | 92% | 1004.6 hPa | 0 mm | - | - | - |
| 1778008816 | 2.22° C | 89% | 1004.6 hPa | 0 mm | - | - | - |
| 1778008216 | 2.22° C | 88% | 1004.5 hPa | 0 mm | - | - | - |
| 1778005836 | 2.22° C | 87% | 1004.7 hPa | 0 mm | - | - | - |
| 1778003416 | 2.22° C | 88% | 1004.1 hPa | 0 mm | - | - | - |
| 1778001016 | 2.78° C | 81% | 1004.7 hPa | 0 mm | - | - | - |
| 1777999816 | 3.89° C | 80% | 1004.6 hPa | 0 mm | - | - | - |
| 1777993215 | 6.11° C | 72% | 1004.3 hPa | 0 mm | - | - | - |
| 1777987817 | 6.11° C | 73% | 1004 hPa | 0 mm | - | - | - |
| 1777985417 | 2.22° C | 83% | 1004.1 hPa | 0 mm | - | - | - |
| 1777984817 | 3.33° C | 78% | 1004.2 hPa | 0 mm | - | - | - |
| 1777982417 | 5.56° C | 73% | 1003.4 hPa | 0 mm | - | - | - |
| 1777981217 | 5° C | 78% | 1003.5 hPa | 0 mm | - | - | - |
| 1777979417 | 3.33° C | 82% | 1003.4 hPa | 0 mm | - | - | - |
| 1777978237 | 2.78° C | 84% | 1003.1 hPa | 0 mm | - | - | - |
| 1777974617 | 4.44° C | 83% | 1002.7 hPa | 0 mm | - | - | - |
| 1777968017 | 4.44° C | 87% | 1002.2 hPa | 0 mm | - | - | - |
| 1777966817 | 3.89° C | 89% | 1002.2 hPa | 0 mm | - | - | - |
| 1777961436 | 3.89° C | 90% | 1001.7 hPa | 0 mm | - | - | - |
| 1777959617 | 1.11° C | 95% | 1001.5 hPa | 0 mm | - | - | - |
| 1777957257 | 0.56° C | 96% | 1001.6 hPa | 0 mm | - | - | - |
| 1777955416 | 0.56° C | 96% | 1001.7 hPa | 0 mm | - | - | - |
| 1777951216 | 0.56° C | 96% | 1001.2 hPa | 0 mm | - | - | - |
| 1777950616 | 0.56° C | 96% | 1001.3 hPa | 0 mm | - | - | - |
* Rain latest hour (hover to see other rain measurements)
** Current wind speed in m/s (hover to see current wind gust speed)